createdAt,value
2018-07-19T00:01:30.827Z,21.73
2018-07-19T00:03:59.909Z,21.81
2018-07-19T00:06:28.921Z,21.84
2018-07-19T00:08:57.996Z,21.90
2018-07-19T00:11:27.072Z,21.90
2018-07-19T00:13:56.110Z,21.90
2018-07-19T00:16:25.192Z,21.91
2018-07-19T00:18:54.253Z,21.98
2018-07-19T00:21:23.368Z,21.96
2018-07-19T00:23:52.344Z,21.97
2018-07-19T00:26:21.371Z,21.94
2018-07-19T00:28:50.397Z,21.88
2018-07-19T00:31:19.429Z,21.80
2018-07-19T00:33:48.538Z,21.72
2018-07-19T00:36:17.681Z,21.66
2018-07-19T00:38:46.729Z,21.60
2018-07-19T00:41:15.796Z,21.59
2018-07-19T00:43:44.789Z,21.61
2018-07-19T00:46:13.820Z,21.54
2018-07-19T00:48:42.846Z,21.51
2018-07-19T00:51:11.881Z,21.48
2018-07-19T00:53:40.913Z,21.46
2018-07-19T00:56:09.981Z,21.42
2018-07-19T00:58:39.008Z,21.46
2018-07-19T01:01:08.101Z,21.44
2018-07-19T01:03:37.112Z,21.50
2018-07-19T01:06:06.190Z,21.54
2018-07-19T01:08:35.249Z,21.60
2018-07-19T01:11:04.340Z,21.60
2018-07-19T01:13:33.373Z,21.61
2018-07-19T01:16:02.406Z,21.66
2018-07-19T01:18:31.490Z,21.74
2018-07-19T01:21:00.580Z,21.75
2018-07-19T01:23:29.589Z,21.80
2018-07-19T01:25:58.627Z,21.88
2018-07-19T01:28:27.636Z,21.90
2018-07-19T01:30:56.798Z,21.95
2018-07-19T01:33:25.829Z,21.94
2018-07-19T01:35:54.868Z,21.88
2018-07-19T01:38:23.901Z,21.79
2018-07-19T01:40:52.890Z,21.72
2018-07-19T01:43:21.997Z,21.71
2018-07-19T01:45:51.007Z,21.65
2018-07-19T01:48:20.025Z,21.62
2018-07-19T01:50:49.056Z,21.56
2018-07-19T01:53:18.178Z,21.47
2018-07-19T01:55:47.193Z,21.49
2018-07-19T01:58:16.160Z,21.44
2018-07-19T02:00:45.173Z,21.41
2018-07-19T02:03:14.141Z,21.40
2018-07-19T02:05:43.220Z,21.45
2018-07-19T02:08:12.291Z,21.42
2018-07-19T02:10:41.268Z,21.40
2018-07-19T02:13:10.264Z,21.34
2018-07-19T02:15:39.231Z,21.37
2018-07-19T02:18:08.301Z,21.46
2018-07-19T02:20:37.288Z,21.43
2018-07-19T02:23:06.587Z,21.38
2018-07-19T02:25:35.669Z,21.39
2018-07-19T02:28:04.748Z,21.39
2018-07-19T02:30:33.741Z,21.40
2018-07-19T02:33:02.781Z,21.43
2018-07-19T02:35:31.745Z,21.38
2018-07-19T02:38:00.747Z,21.35
2018-07-19T02:40:29.888Z,21.39
2018-07-19T02:42:58.897Z,21.39
2018-07-19T02:45:27.900Z,21.41
2018-07-19T02:47:56.884Z,21.39
2018-07-19T02:50:25.933Z,21.44
2018-07-19T02:52:54.903Z,21.49
2018-07-19T02:55:23.868Z,21.52
2018-07-19T02:57:52.988Z,21.53
2018-07-19T03:00:22.082Z,21.56
2018-07-19T03:02:51.112Z,21.58
2018-07-19T03:05:20.205Z,21.66
2018-07-19T03:07:49.315Z,21.73
2018-07-19T03:10:18.333Z,21.68
2018-07-19T03:12:47.365Z,21.68
2018-07-19T03:15:16.510Z,21.67
2018-07-19T03:17:45.581Z,21.64
2018-07-19T03:20:14.559Z,21.64
2018-07-19T03:22:43.547Z,21.62
2018-07-19T03:25:12.581Z,21.67
2018-07-19T03:27:41.585Z,21.72
2018-07-19T03:30:10.552Z,21.73
2018-07-19T03:32:39.570Z,21.73
2018-07-19T03:35:08.622Z,21.73
2018-07-19T03:37:37.645Z,21.72
2018-07-19T03:40:06.683Z,21.77
2018-07-19T03:42:35.716Z,21.83
2018-07-19T03:45:04.830Z,21.85
2018-07-19T03:47:33.828Z,21.87
2018-07-19T03:50:02.948Z,21.93
2018-07-19T03:52:31.935Z,21.95
2018-07-19T03:55:00.923Z,22.01
2018-07-19T03:57:29.937Z,22.12
2018-07-19T03:59:58.945Z,22.21
2018-07-19T04:02:27.960Z,22.27
2018-07-19T04:04:56.916Z,22.29
2018-07-19T04:07:26.057Z,22.35
2018-07-19T04:09:55.037Z,22.41
2018-07-19T04:12:24.063Z,22.50
2018-07-19T04:14:53.377Z,22.51
2018-07-19T04:17:22.464Z,22.54
2018-07-19T04:19:51.524Z,22.55
2018-07-19T04:22:20.520Z,22.53
2018-07-19T04:24:50.551Z,22.59
2018-07-19T04:27:19.675Z,22.67
2018-07-19T04:29:48.652Z,22.76
2018-07-19T04:32:17.677Z,22.84
2018-07-19T04:34:46.767Z,22.88
2018-07-19T04:37:15.864Z,22.87
2018-07-19T04:39:44.935Z,23.05
2018-07-19T04:42:14.046Z,23.13
2018-07-19T04:44:43.054Z,23.27
2018-07-19T04:47:12.093Z,23.37
2018-07-19T04:49:41.165Z,23.34
2018-07-19T04:52:10.321Z,23.34
2018-07-19T04:54:39.454Z,23.16
2018-07-19T04:57:08.454Z,23.13
2018-07-19T04:59:37.492Z,23.24
2018-07-19T05:02:06.761Z,23.36
2018-07-19T05:04:35.824Z,23.47
2018-07-19T05:07:04.957Z,23.61
2018-07-19T05:09:34.040Z,23.73
2018-07-19T05:12:03.094Z,23.86
2018-07-19T05:14:32.204Z,23.86
2018-07-19T05:17:01.244Z,23.74
2018-07-19T05:19:30.336Z,23.85
2018-07-19T05:21:59.355Z,24.07
2018-07-19T05:24:28.515Z,24.21
2018-07-19T05:26:57.555Z,24.15
2018-07-19T05:29:26.693Z,24.17
2018-07-19T05:31:55.765Z,24.20
2018-07-19T05:34:24.782Z,24.15
2018-07-19T05:36:53.824Z,24.20
2018-07-19T05:39:22.804Z,24.32
2018-07-19T05:41:51.844Z,24.25
2018-07-19T05:44:20.892Z,24.29
2018-07-19T05:46:49.960Z,24.42
2018-07-19T05:49:19.053Z,24.37
2018-07-19T05:51:48.096Z,24.29
2018-07-19T05:54:17.115Z,24.30
2018-07-19T05:56:46.184Z,24.34
2018-07-19T05:59:15.232Z,24.57
2018-07-19T06:01:44.269Z,25.08
2018-07-19T06:04:13.424Z,25.37
2018-07-19T06:06:42.437Z,25.69
2018-07-19T06:09:12.143Z,26.00
2018-07-19T06:11:41.528Z,26.02
2018-07-19T06:14:10.540Z,26.23
2018-07-19T06:20:11.674Z,25.65
2018-07-19T06:22:40.713Z,25.30
2018-07-19T06:25:09.721Z,25.14
2018-07-19T06:27:38.816Z,25.02
2018-07-19T06:30:08.264Z,25.05
2018-07-19T06:32:37.429Z,25.01
2018-07-19T06:35:06.531Z,25.14
2018-07-19T06:37:35.569Z,25.32
2018-07-19T06:40:05.124Z,25.47
2018-07-19T06:42:34.148Z,26.62
2018-07-19T06:45:03.313Z,28.48
2018-07-19T06:47:32.369Z,29.09
2018-07-19T06:50:01.436Z,28.69
2018-07-19T06:52:30.420Z,29.12
2018-07-19T06:54:59.465Z,29.86
2018-07-19T06:57:28.542Z,30.37
2018-07-19T06:59:57.550Z,30.72
2018-07-19T07:02:26.690Z,30.95
2018-07-19T07:04:55.656Z,30.60
2018-07-19T07:07:24.636Z,30.77
2018-07-19T07:09:53.613Z,30.73
2018-07-19T07:12:22.604Z,29.97
2018-07-19T07:14:51.701Z,30.06
2018-07-19T07:17:20.669Z,30.23
2018-07-19T07:19:49.779Z,30.43
2018-07-19T07:22:18.774Z,31.15
2018-07-19T07:24:47.745Z,31.47
2018-07-19T07:27:16.772Z,30.94
2018-07-19T07:29:45.751Z,30.49
2018-07-19T07:32:14.859Z,29.98
2018-07-19T07:34:43.940Z,29.75
2018-07-19T07:37:13.038Z,29.53
2018-07-19T07:39:42.111Z,29.41
2018-07-19T07:42:11.170Z,29.76
2018-07-19T07:44:40.325Z,29.67
2018-07-19T07:47:09.307Z,29.37
2018-07-19T07:49:38.358Z,29.15
2018-07-19T07:52:07.356Z,28.83
2018-07-19T07:54:36.334Z,28.67
2018-07-19T07:57:05.344Z,28.39
2018-07-19T07:59:34.357Z,28.32
2018-07-19T08:02:03.460Z,28.35
2018-07-19T08:04:32.496Z,28.24
2018-07-19T08:07:01.465Z,28.24
2018-07-19T08:09:30.444Z,28.31
2018-07-19T08:11:59.529Z,28.64
2018-07-19T08:14:28.503Z,28.91
2018-07-19T08:16:57.521Z,29.83
2018-07-19T08:19:26.619Z,30.30
2018-07-19T08:21:55.786Z,30.40
2018-07-19T08:24:24.803Z,30.64
2018-07-19T08:26:53.808Z,30.76
2018-07-19T08:29:22.830Z,30.66
2018-07-19T08:31:51.904Z,30.21
2018-07-19T08:34:20.876Z,29.77
2018-07-19T08:36:50.009Z,29.76
2018-07-19T08:39:18.989Z,29.46
2018-07-19T08:41:47.980Z,29.45
2018-07-19T08:44:17.033Z,29.50
2018-07-19T08:46:46.089Z,29.58
2018-07-19T08:49:15.501Z,29.53
2018-07-19T08:51:44.525Z,29.85
2018-07-19T08:54:13.522Z,29.87
2018-07-19T08:56:42.597Z,29.83
2018-07-19T08:59:11.579Z,29.63
2018-07-19T09:01:40.580Z,29.68
2018-07-19T09:04:09.656Z,29.38
2018-07-19T09:06:38.627Z,29.03
2018-07-19T09:09:09.149Z,29.15
2018-07-19T09:11:38.325Z,28.99
2018-07-19T09:14:07.403Z,29.00
2018-07-19T09:16:36.396Z,29.19
2018-07-19T09:19:05.424Z,29.43
2018-07-19T09:21:34.409Z,29.95
2018-07-19T09:24:03.453Z,29.86
2018-07-19T09:26:32.585Z,29.63
2018-07-19T09:29:01.512Z,29.82
2018-07-19T09:31:30.613Z,29.94
2018-07-19T09:33:59.685Z,29.64
2018-07-19T09:36:28.762Z,29.07
2018-07-19T09:38:57.796Z,29.14
2018-07-19T09:41:26.799Z,29.38
2018-07-19T09:43:55.980Z,29.52
2018-07-19T09:46:25.003Z,29.40
2018-07-19T09:48:54.044Z,29.15
2018-07-19T09:51:23.020Z,29.20
2018-07-19T09:53:52.112Z,29.36
2018-07-19T09:56:21.168Z,29.53
2018-07-19T09:58:50.120Z,29.95
2018-07-19T10:01:19.782Z,29.94
2018-07-19T10:03:50.191Z,30.12
2018-07-19T10:06:19.223Z,30.49
2018-07-19T10:08:48.237Z,30.97
2018-07-19T10:11:17.309Z,30.94
2018-07-19T10:13:46.832Z,31.17
2018-07-19T10:16:15.879Z,31.41
2018-07-19T10:18:45.074Z,31.50
2018-07-19T10:21:14.116Z,31.53
2018-07-19T10:23:43.221Z,31.55
2018-07-19T10:26:12.297Z,31.40
2018-07-19T10:28:41.478Z,31.23
2018-07-19T10:31:10.463Z,31.58
2018-07-19T10:33:39.573Z,31.67
2018-07-19T10:36:08.540Z,31.60
2018-07-19T10:38:37.565Z,31.10
2018-07-19T10:41:06.572Z,30.36
2018-07-19T10:43:35.561Z,29.91
2018-07-19T10:46:04.671Z,29.84
2018-07-19T10:48:33.704Z,29.94
2018-07-19T10:51:02.693Z,30.48
2018-07-19T10:53:31.713Z,31.20
2018-07-19T10:56:00.802Z,31.65
2018-07-19T10:58:29.833Z,32.29
2018-07-19T11:00:58.842Z,32.59
2018-07-19T11:03:27.837Z,32.95
2018-07-19T11:05:56.866Z,33.93
2018-07-19T11:08:25.949Z,34.05
2018-07-19T11:10:54.943Z,33.22
2018-07-19T11:13:24.004Z,33.19
2018-07-19T11:15:52.976Z,33.37
2018-07-19T11:18:22.041Z,33.24
2018-07-19T11:20:51.047Z,33.31
2018-07-19T11:23:20.130Z,33.61
2018-07-19T11:25:49.118Z,33.64
2018-07-19T11:28:18.091Z,33.01
2018-07-19T11:30:47.169Z,33.21
2018-07-19T11:33:16.192Z,33.54
2018-07-19T11:35:45.268Z,33.57
2018-07-19T11:38:14.342Z,33.04
2018-07-19T11:40:43.405Z,32.74
2018-07-19T11:43:12.380Z,32.92
2018-07-19T11:45:41.336Z,33.10
2018-07-19T11:48:10.304Z,32.68
2018-07-19T11:50:39.324Z,32.20
2018-07-19T11:53:08.365Z,32.10
2018-07-19T11:55:37.344Z,32.24
2018-07-19T11:58:06.469Z,31.83
2018-07-19T12:00:35.516Z,31.43
2018-07-19T12:03:04.573Z,31.20
2018-07-19T12:05:33.589Z,30.98
2018-07-19T12:08:02.543Z,30.67
2018-07-19T12:10:31.518Z,30.40
2018-07-19T12:13:00.481Z,30.20
2018-07-19T12:15:29.457Z,29.69
2018-07-19T12:17:58.405Z,29.50
2018-07-19T12:20:27.439Z,29.43
2018-07-19T12:22:56.408Z,29.60
2018-07-19T12:25:25.677Z,29.62
2018-07-19T12:27:54.796Z,29.83
2018-07-19T12:30:23.861Z,30.06
2018-07-19T12:32:52.832Z,30.08
2018-07-19T12:35:21.780Z,30.18
2018-07-19T12:37:50.869Z,30.55
2018-07-19T12:40:19.939Z,30.94
2018-07-19T12:42:48.974Z,31.12
2018-07-19T12:45:17.977Z,31.57
2018-07-19T12:47:47.201Z,32.62
2018-07-19T12:50:16.274Z,34.02
2018-07-19T12:52:45.240Z,34.12
2018-07-19T12:55:14.228Z,34.81
2018-07-19T12:57:43.336Z,34.94
2018-07-19T13:00:12.408Z,34.89
2018-07-19T13:02:41.409Z,34.63
2018-07-19T13:05:10.491Z,34.99
2018-07-19T13:07:39.521Z,34.61
2018-07-19T13:10:08.520Z,34.32
2018-07-19T13:12:37.513Z,33.34
2018-07-19T13:15:07.228Z,33.08
2018-07-19T13:17:36.320Z,32.53
2018-07-19T13:20:05.688Z,32.16
2018-07-19T13:22:34.661Z,31.76
2018-07-19T13:25:03.699Z,31.43
2018-07-19T13:27:32.755Z,31.00
2018-07-19T13:30:01.769Z,30.56
2018-07-19T13:32:30.776Z,30.30
2018-07-19T13:34:59.805Z,30.20
2018-07-19T13:37:28.825Z,30.00
2018-07-19T13:39:57.800Z,29.81
2018-07-19T13:42:26.749Z,29.52
2018-07-19T13:44:55.812Z,29.11
2018-07-19T13:47:24.821Z,28.95
2018-07-19T13:49:53.786Z,28.74
2018-07-19T13:52:33.632Z,28.65
2018-07-19T13:55:02.656Z,28.83
2018-07-19T13:57:31.716Z,28.99
2018-07-19T14:00:00.752Z,29.26
2018-07-19T14:02:29.868Z,29.38
2018-07-19T14:04:58.829Z,29.61
2018-07-19T14:07:27.975Z,29.62
2018-07-19T14:09:56.989Z,29.50
2018-07-19T14:12:26.078Z,29.71
2018-07-19T14:14:55.033Z,29.91
2018-07-19T14:17:23.969Z,30.13
2018-07-19T14:19:53.092Z,30.29
2018-07-19T14:22:22.053Z,30.36
2018-07-19T14:24:51.017Z,30.31
2018-07-19T14:27:19.969Z,30.28
2018-07-19T14:29:48.928Z,30.26
2018-07-19T14:32:17.959Z,30.07
2018-07-19T14:34:46.964Z,30.03
2018-07-19T14:37:15.992Z,29.90
2018-07-19T14:39:45.020Z,29.78
2018-07-19T14:42:13.993Z,29.74
2018-07-19T14:44:43.036Z,29.69
2018-07-19T14:47:12.000Z,29.85
2018-07-19T14:49:41.061Z,30.00
2018-07-19T14:52:10.077Z,30.08
2018-07-19T14:54:39.108Z,30.21
2018-07-19T14:57:08.206Z,30.18
2018-07-19T14:59:37.292Z,30.33
2018-07-19T15:02:06.317Z,30.36
2018-07-19T15:04:35.433Z,30.39
2018-07-19T15:07:04.461Z,30.29
2018-07-19T15:09:33.488Z,30.08
2018-07-19T15:12:02.485Z,29.75
2018-07-19T15:14:31.479Z,29.41
2018-07-19T15:17:00.509Z,29.22
2018-07-19T15:19:29.529Z,28.86
2018-07-19T15:21:58.670Z,28.00
2018-07-19T15:24:27.693Z,27.31
2018-07-19T15:26:56.674Z,26.76
2018-07-19T15:29:25.714Z,26.27
2018-07-19T15:31:54.665Z,25.90
2018-07-19T15:34:23.710Z,25.63
2018-07-19T15:36:52.773Z,25.46
2018-07-19T15:39:21.797Z,25.40
2018-07-19T15:41:50.777Z,25.46
2018-07-19T15:44:19.896Z,25.50
2018-07-19T15:46:48.859Z,25.59
2018-07-19T15:49:17.792Z,25.73
2018-07-19T15:51:46.957Z,25.82
2018-07-19T15:54:15.908Z,25.87
2018-07-19T15:56:44.876Z,25.95
2018-07-19T15:59:13.829Z,26.00
2018-07-19T16:01:42.796Z,26.03
2018-07-19T16:04:12.122Z,26.10
2018-07-19T16:06:41.195Z,26.21
2018-07-19T16:09:11.913Z,26.12
2018-07-19T16:11:41.065Z,26.05
2018-07-19T16:14:10.032Z,25.92
2018-07-19T16:16:38.975Z,25.83
2018-07-19T16:19:08.073Z,25.74
2018-07-19T16:21:37.105Z,25.77
2018-07-19T16:24:06.124Z,25.88
2018-07-19T16:26:35.193Z,25.94
2018-07-19T16:29:04.225Z,26.01
2018-07-19T16:31:33.168Z,26.11
2018-07-19T16:34:02.137Z,26.21
2018-07-19T16:36:31.111Z,26.30
2018-07-19T16:39:00.191Z,26.36
2018-07-19T16:41:29.301Z,26.37
2018-07-19T16:43:58.257Z,26.42
2018-07-19T16:46:27.235Z,26.45
2018-07-19T16:48:56.219Z,26.40
2018-07-19T16:51:25.354Z,26.31
2018-07-19T16:53:54.305Z,26.27
2018-07-19T16:56:23.324Z,26.28
2018-07-19T16:58:52.295Z,26.28
2018-07-19T17:01:21.332Z,26.28
2018-07-19T17:03:50.364Z,26.22
2018-07-19T17:06:19.432Z,26.20
2018-07-19T17:08:49.487Z,26.23
2018-07-19T17:11:18.467Z,26.23
2018-07-19T17:13:47.480Z,26.19
2018-07-19T17:16:16.653Z,26.15
2018-07-19T17:18:45.722Z,26.10
2018-07-19T17:21:14.798Z,26.11
2018-07-19T17:23:43.746Z,26.13
2018-07-19T17:26:12.775Z,26.07
2018-07-19T17:28:41.845Z,26.12
2018-07-19T17:31:10.957Z,26.12
2018-07-19T17:33:39.960Z,26.12
2018-07-19T17:36:09.052Z,26.07
2018-07-19T17:38:38.075Z,26.13
2018-07-19T17:41:07.349Z,26.15
2018-07-19T17:43:36.397Z,26.13
2018-07-19T17:46:05.464Z,26.15
2018-07-19T17:48:34.428Z,26.09
2018-07-19T17:51:06.365Z,26.09
2018-07-19T17:53:36.258Z,26.06
2018-07-19T17:56:05.275Z,25.99
2018-07-19T17:58:36.758Z,25.94
2018-07-19T18:01:05.912Z,25.88
2018-07-19T18:03:35.701Z,25.78
2018-07-19T18:06:04.720Z,25.65
2018-07-19T18:08:34.020Z,25.54
2018-07-19T18:11:03.076Z,25.34
2018-07-19T18:13:32.155Z,25.21
2018-07-19T18:16:01.210Z,25.12
2018-07-19T18:18:30.385Z,25.09
2018-07-19T18:20:59.465Z,25.09
2018-07-19T18:23:28.512Z,25.14
2018-07-19T18:25:57.551Z,25.16
2018-07-19T18:28:26.528Z,25.15
2018-07-19T18:30:55.577Z,25.08
2018-07-19T18:33:24.630Z,25.01
2018-07-19T18:35:53.661Z,24.92
2018-07-19T18:38:24.196Z,24.77
2018-07-19T18:40:53.190Z,24.67
2018-07-19T18:43:22.869Z,24.53
2018-07-19T18:45:51.904Z,24.36
2018-07-19T18:48:20.900Z,24.21
2018-07-19T18:50:50.141Z,24.05
2018-07-19T18:53:19.152Z,23.91
2018-07-19T18:55:48.262Z,23.81
2018-07-19T18:58:17.308Z,23.74
2018-07-19T19:00:46.323Z,23.53
2018-07-19T19:03:15.288Z,23.69
2018-07-19T19:05:44.360Z,23.67
2018-07-19T19:08:13.345Z,23.70
2018-07-19T19:10:42.300Z,23.68
2018-07-19T19:13:17.822Z,23.68
2018-07-19T19:15:46.984Z,23.74
2018-07-19T19:18:15.979Z,23.86
2018-07-19T19:20:44.956Z,23.91
2018-07-19T19:23:13.948Z,23.94
2018-07-19T19:25:43.010Z,24.01
2018-07-19T19:28:12.121Z,24.07
2018-07-19T19:30:41.102Z,24.10
2018-07-19T19:33:10.139Z,24.17
2018-07-19T19:35:39.176Z,24.16
2018-07-19T19:38:08.203Z,24.25
2018-07-19T19:40:37.253Z,24.30
2018-07-19T19:43:06.457Z,24.32
2018-07-19T19:45:35.617Z,24.32
2018-07-19T19:48:04.645Z,24.28
2018-07-19T19:50:33.689Z,24.27
2018-07-19T19:53:02.768Z,24.01
2018-07-19T19:55:31.753Z,23.56
2018-07-19T19:58:00.732Z,23.28
2018-07-19T20:00:29.774Z,23.03
2018-07-19T20:02:58.914Z,22.80
2018-07-19T20:05:27.974Z,22.63
2018-07-19T20:07:57.131Z,22.49
2018-07-19T20:10:26.161Z,22.38
2018-07-19T20:12:55.204Z,22.25
2018-07-19T20:15:24.205Z,22.12
2018-07-19T20:17:53.230Z,22.06
2018-07-19T20:20:22.225Z,21.99
2018-07-19T20:22:51.303Z,21.97
2018-07-19T20:25:20.376Z,21.91
2018-07-19T20:27:49.392Z,21.90
2018-07-19T20:30:18.429Z,21.92
2018-07-19T20:32:47.412Z,21.96
2018-07-19T20:35:16.441Z,22.00
2018-07-19T20:37:45.476Z,22.05
2018-07-19T20:40:14.469Z,22.17
2018-07-19T20:42:43.462Z,22.15
2018-07-19T20:45:12.424Z,22.04
2018-07-19T20:47:41.452Z,21.93
2018-07-19T20:50:10.456Z,21.85
2018-07-19T20:52:39.544Z,21.70
2018-07-19T20:55:09.140Z,21.59
2018-07-19T20:57:38.696Z,21.54
2018-07-19T21:00:08.077Z,21.46
2018-07-19T21:02:37.085Z,21.42
2018-07-19T21:05:06.201Z,21.38
2018-07-19T21:07:35.240Z,21.34
2018-07-19T21:10:04.343Z,21.26
2018-07-19T21:12:33.263Z,21.26
2018-07-19T21:15:02.272Z,21.24
2018-07-19T21:17:31.316Z,21.24
2018-07-19T21:20:00.309Z,21.23
2018-07-19T21:22:29.336Z,21.20
2018-07-19T21:24:58.352Z,21.21
2018-07-19T21:27:27.312Z,21.22
2018-07-19T21:29:56.268Z,21.22
2018-07-19T21:32:25.227Z,21.23
2018-07-19T21:34:54.281Z,21.25
2018-07-19T21:37:23.349Z,21.25
2018-07-19T21:39:52.492Z,21.28
2018-07-19T21:42:21.443Z,21.27
2018-07-19T21:44:50.464Z,21.19
2018-07-19T21:47:19.472Z,21.14
2018-07-19T21:49:48.439Z,21.10
2018-07-19T21:52:17.552Z,21.05
2018-07-19T21:54:46.581Z,21.02
2018-07-19T21:57:15.539Z,21.00
2018-07-19T21:59:44.608Z,20.95
2018-07-19T22:02:15.041Z,20.95
2018-07-19T22:04:44.236Z,20.94
2018-07-19T22:07:13.296Z,20.99
2018-07-19T22:09:42.479Z,21.02
2018-07-19T22:12:11.437Z,21.06
2018-07-19T22:14:40.400Z,21.05
2018-07-19T22:17:09.358Z,21.07
2018-07-19T22:19:38.458Z,21.07
2018-07-19T22:22:07.470Z,21.07
2018-07-19T22:24:36.447Z,21.11
2018-07-19T22:27:05.416Z,21.07
2018-07-19T22:29:34.382Z,21.08
2018-07-19T22:32:03.324Z,21.07
2018-07-19T22:34:32.387Z,21.11
2018-07-19T22:37:01.337Z,21.12
2018-07-19T22:39:30.397Z,21.18
2018-07-19T22:41:59.462Z,21.22
2018-07-19T22:44:28.421Z,21.25
2018-07-19T22:46:57.461Z,21.25
2018-07-19T22:49:26.416Z,21.26
2018-07-19T22:51:55.475Z,21.19
2018-07-19T22:54:24.573Z,21.14
2018-07-19T22:56:53.710Z,21.11
2018-07-19T22:59:22.674Z,21.09
2018-07-19T23:01:51.697Z,21.10
2018-07-19T23:04:20.748Z,21.13
2018-07-19T23:06:49.781Z,21.13
2018-07-19T23:09:18.921Z,21.19
2018-07-19T23:11:47.959Z,21.18
2018-07-19T23:14:17.000Z,21.16
2018-07-19T23:16:46.074Z,21.18
2018-07-19T23:19:15.107Z,21.25
2018-07-19T23:21:44.174Z,21.31
2018-07-19T23:24:13.139Z,21.36
2018-07-19T23:26:42.221Z,21.42
2018-07-19T23:29:11.390Z,21.49
2018-07-19T23:31:40.474Z,21.53
2018-07-19T23:34:09.532Z,21.57
2018-07-19T23:36:56.448Z,21.60
2018-07-19T23:39:30.096Z,21.58
2018-07-19T23:42:06.473Z,21.59
2018-07-19T23:44:43.741Z,21.59
2018-07-19T23:47:16.812Z,21.59
2018-07-19T23:49:45.849Z,21.59
2018-07-19T23:52:14.876Z,21.61
2018-07-19T23:54:43.823Z,21.53
2018-07-19T23:57:12.786Z,21.48
2018-07-19T23:59:41.819Z,21.46
